Forside
METAR-TAF:

METAR-TAF

Lufthavne :

Crystal Airport

Minneapolis / Crystal, Minnesota, USA

Breddekreds: 45-03-45N, længdekreds: 093-21-03W, højde: 264 m

Aktuelle vejr

Denne rapport blev lavet for 23 minutter siden, kl. 11:53 UTC
Vind 8 kt fra sydøst
Temperatur 1°C
Fugtighed 86%
Tryk 1016 hPa
Sigt: 4.0 km
Overskyet i en højde af 1000 ft
let sne, dis

METAR: KMIC 241153Z AUTO 13008KT 2 1/2SM -SN BR OVC010 01/M01 A2999 RMK AO2 SNB28 CIG 007V014 SLP167 P0000 60000 T00061011 10011 20000 56022

Tid: 06:16 (12:16 UTC)


TAF: fraværende

Vejrobservationer og prognoser fra mere end 4000 lufthavne (METAR og TAF).

De gule og røde prikker repræsenterer de meteorologiske stationer.

Flyt musen over at se navnet på stationen.

Så klik over at se vejr observationer og prognoser.

At skifte det kort: Klik på de grønne knapper med et sort kors for at zoome ind; på den grønne knap med en bindestreg for at zoome ud; eller på de grønne pile for tilstødende kort.


METAR-TAF: